Aérodrome :







RETROUVEZ-NOUS SUR...

 
LOGIN :

S'inscrire | Disclaimer

   EN    FR    IT 

 









Légende :    VFR   VFR Marginal   IFR   IFR Intensif   IFR Très Intensif
Visi : 
Plafond : 
>= 8 km
>= 3000ft
5 à 8 km
1000 à 3000 ft
1500m à 5 km
500 à 1000 ft
800 à 1500m
200 à 500 ft
< 800m
< 200 ft
Symboles :   Orages  Brouillard  Fortes neiges  Fortes précipitations  Vent > 20 kt






- Altitude de l'aérodrome : 1040 ft


KAFN - Jaffrey Silver Ranch

DERNIER METAR :
  • 090408Z AUTO 23003KT 8SM OVC006 22/21 A2999 RMK AO2 CIG 004V010 T02170206

METARs EXPIRÉS :
  • 090352Z AUTO 00000KT 7SM OVC005 22/20 A3000 RMK AO2 CIG 004V008 SLP156 T02170200
  • 090345Z AUTO 00000KT 7SM OVC005 22/20 A3000 RMK AO2 CIG 004V007 T02170200
  • 090324Z AUTO 00000KT 7SM OVC004 22/20 A2999 RMK AO2 T02170200
  • 090313Z AUTO 26003KT 7SM BKN006 22/20 A2999 RMK AO2 T02170200
  • 090302Z AUTO 00000KT 6SM BR SCT007 21/19 A2999 RMK AO2 T02110194
  • 090252Z AUTO 00000KT 4SM BR CLR 21/19 A2999 RMK AO2 SLP155 T02060194 53003
  • 090152Z AUTO 25003KT 10SM CLR 22/20 A2998 RMK AO2 SLP153 T02170200

TAF N/A
FIR KZBW / Amérique du Nord



MET'MAP, la Météo Aéronautique d'un coup d'oeil ! - Copyright ORBIFLY Décembre 2007 - Disclaimer

ORBIFLY MET'MAP TEAM :

Programmation & Développement : Alexandra Zaïnal
Sur une idée originale de : Baudouin d'Aumeries
Assistance à la programmation : Marc-Olivier Méhu
Soutien technique & logistique : Manuel Goepfert

Contact : metmap@orbifly.com




SOURCES & CREDITS :

   NOAA